Time;durP1;ratioP1;P1;durP2;ratioP2;P2;SDS_P1;SDS_P2;PMS_P1;PMS_P2;Temp;Humidity;BMP_temperature;BMP_pressure;BME280_temperature;BME280_humidity;BME280_pressure;Samples;Min_cycle;Max_cycle;Signal;HPM_P1;HPM_P2
2021/08/02 00:00:48;;;;;;;1.70;1.58;;;19.80;99.90;;;;;;5014611;28;20215;-82
2021/08/02 00:03:20;;;;;;;2.00;1.80;;;19.90;99.90;;;;;;5014432;28;20302;-83
2021/08/02 00:05:49;;;;;;;2.15;1.67;;;19.80;99.90;;;;;;5013714;28;20613;-82
2021/08/02 00:08:22;;;;;;;1.60;1.50;;;19.90;99.90;;;;;;5014238;28;20259;-82
2021/08/02 00:10:52;;;;;;;1.65;1.40;;;19.90;99.90;;;;;;5013662;28;20695;-82
2021/08/02 00:13:28;;;;;;;1.80;1.48;;;19.80;99.90;;;;;;5024270;28;20200;-85
2021/08/02 00:15:56;;;;;;;1.90;1.58;;;19.80;99.90;;;;;;5015098;28;20197;-84
2021/08/02 00:18:25;;;;;;;1.30;1.20;;;19.80;99.90;;;;;;5014803;28;20204;-84
2021/08/02 00:20:52;;;;;;;1.60;1.50;;;19.80;99.90;;;;;;5014096;28;20228;-83
2021/08/02 00:23:20;;;;;;;1.80;1.38;;;19.80;99.90;;;;;;5014602;28;20200;-84
2021/08/02 00:25:47;;;;;;;1.80;1.40;;;19.70;99.90;;;;;;5013380;28;20628;-83
2021/08/02 00:28:17;;;;;;;2.10;1.70;;;19.70;99.90;;;;;;5014333;28;20224;-83
2021/08/02 00:30:45;;;;;;;1.40;1.30;;;19.70;99.90;;;;;;5013524;28;20197;-82
2021/08/02 00:33:12;;;;;;;2.13;1.92;;;19.70;99.90;;;;;;5014079;28;20189;-83
2021/08/02 00:35:46;;;;;;;2.10;1.90;;;19.70;99.90;;;;;;5013939;28;20201;-83
2021/08/02 00:38:21;;;;;;;1.63;1.27;;;19.60;99.90;;;;;;5012127;28;20189;-83
2021/08/02 00:41:16;;;;;;;1.95;1.75;;;19.60;99.90;;;;;;5013164;28;20572;-83
2021/08/02 00:44:28;;;;;;;2.05;1.80;;;19.60;99.90;;;;;;5014046;28;20279;-83
2021/08/02 00:47:02;;;;;;;1.75;1.65;;;19.60;99.90;;;;;;5013039;28;20576;-84
2021/08/02 00:49:29;;;;;;;3.00;1.90;;;19.60;99.90;;;;;;5013361;28;20203;-83
2021/08/02 00:51:57;;;;;;;1.55;1.45;;;19.60;99.90;;;;;;5006743;28;20244;-82
2021/08/02 00:54:26;;;;;;;1.50;1.00;;;19.60;99.90;;;;;;5010101;28;20221;-81
2021/08/02 00:56:57;;;;;;;1.50;1.40;;;19.60;99.90;;;;;;5011469;28;20197;-81
2021/08/02 00:59:27;;;;;;;3.88;1.80;;;19.60;99.90;;;;;;5013415;28;20629;-81
2021/08/02 01:01:54;;;;;;;1.88;1.67;;;19.60;99.90;;;;;;5013682;28;20297;-81
2021/08/02 01:04:23;;;;;;;1.92;1.70;;;19.60;99.90;;;;;;5013130;28;20216;-82
2021/08/02 01:06:52;;;;;;;2.65;1.80;;;19.50;99.90;;;;;;5012599;28;20624;-81
2021/08/02 01:09:20;;;;;;;2.00;1.80;;;19.60;99.90;;;;;;5012262;28;20280;-82
2021/08/02 01:11:49;;;;;;;1.75;1.65;;;19.60;99.90;;;;;;5011849;28;20203;-82
2021/08/02 01:14:17;;;;;;;2.10;1.90;;;19.50;99.90;;;;;;5003063;28;20196;-83
2021/08/02 01:16:46;;;;;;;2.55;1.85;;;19.50;99.90;;;;;;5011452;28;20209;-83
2021/08/02 01:19:15;;;;;;;3.28;1.50;;;19.50;99.90;;;;;;5011956;28;20200;-82
2021/08/02 01:21:44;;;;;;;1.88;1.55;;;19.50;99.90;;;;;;5012668;28;20205;-83
2021/08/02 01:24:13;;;;;;;2.10;1.75;;;19.20;99.90;;;;;;5012018;28;20217;-82
2021/08/02 01:27:28;;;;;;;1.73;1.48;;;19.40;99.90;;;;;;5011837;28;20207;-82
2021/08/02 01:30:22;;;;;;;1.83;1.40;;;19.40;99.90;;;;;;5011264;28;20208;-82
2021/08/02 01:32:50;;;;;;;2.65;1.48;;;19.40;99.90;;;;;;5006479;28;20574;-81
2021/08/02 01:35:17;;;;;;;3.13;2.00;;;19.50;99.90;;;;;;5012339;28;20276;-81
2021/08/02 01:37:45;;;;;;;1.70;1.50;;;19.40;99.90;;;;;;5012369;28;20636;-82
2021/08/02 01:40:14;;;;;;;1.75;1.65;;;19.40;99.90;;;;;;5012524;28;20209;-81
2021/08/02 01:42:41;;;;;;;3.72;1.60;;;19.30;99.90;;;;;;5013108;28;20684;-81
2021/08/02 01:45:09;;;;;;;1.88;1.77;;;19.30;99.90;;;;;;5012872;28;20275;-82
2021/08/02 01:47:41;;;;;;;1.63;1.52;;;19.30;99.90;;;;;;5012098;28;20532;-81
2021/08/02 01:50:18;;;;;;;1.60;1.50;;;19.20;99.90;;;;;;5002262;28;20679;-82
2021/08/02 01:52:53;;;;;;;2.10;1.40;;;19.30;99.90;;;;;;5011558;28;20599;-83
2021/08/02 01:55:23;;;;;;;2.17;1.88;;;19.30;99.90;;;;;;5013078;28;20239;-83
2021/08/02 01:57:55;;;;;;;2.40;2.00;;;19.30;99.90;;;;;;5012292;28;20251;-83
2021/08/02 02:00:22;;;;;;;2.40;1.58;;;19.20;99.90;;;;;;5012058;28;20577;-84
2021/08/02 02:02:58;;;;;;;1.90;1.40;;;19.30;99.90;;;;;;5012048;28;20703;-83
2021/08/02 02:05:31;;;;;;;1.60;1.50;;;19.30;99.90;;;;;;5013423;28;20204;-85
2021/08/02 02:08:01;;;;;;;1.55;1.45;;;19.20;99.90;;;;;;5012492;28;20196;-83
2021/08/02 02:10:38;;;;;;;2.05;1.60;;;19.20;99.90;;;;;;5009408;28;20208;-83
2021/08/02 02:13:06;;;;;;;2.10;1.75;;;19.20;99.90;;;;;;5013357;28;20247;-82
2021/08/02 02:15:33;;;;;;;2.13;1.70;;;19.20;99.90;;;;;;5011822;28;20228;-83
2021/08/02 02:18:02;;;;;;;2.22;1.92;;;19.10;99.90;;;;;;5012507;28;20208;-83
2021/08/02 02:20:32;;;;;;;1.50;1.40;;;19.10;99.90;;;;;;5012682;28;20197;-83
2021/08/02 02:22:59;;;;;;;1.92;1.70;;;19.20;99.90;;;;;;5012552;28;20204;-83
2021/08/02 02:25:26;;;;;;;2.28;1.85;;;19.20;99.90;;;;;;5012737;28;20224;-83
2021/08/02 02:27:55;;;;;;;2.58;1.83;;;19.20;99.90;;;;;;5012514;28;20240;-83
2021/08/02 02:30:22;;;;;;;2.67;1.80;;;19.20;99.90;;;;;;5012787;28;20548;-77
2021/08/02 02:32:50;;;;;;;3.50;2.63;;;19.10;99.90;;;;;;5012234;28;20204;-77
2021/08/02 02:35:20;;;;;;;3.05;1.83;;;19.10;99.90;;;;;;5012817;28;20224;-77
2021/08/02 02:37:48;;;;;;;1.50;1.40;;;19.10;99.90;;;;;;5011995;28;20193;-78
2021/08/02 02:40:16;;;;;;;3.13;2.10;;;19.10;99.90;;;;;;5016742;28;20204;-79
2021/08/02 02:42:44;;;;;;;3.92;1.90;;;19.10;99.90;;;;;;5011865;28;20224;-77
2021/08/02 02:45:13;;;;;;;3.47;1.70;;;19.10;99.90;;;;;;5012084;28;20278;-76
2021/08/02 02:47:41;;;;;;;2.55;1.70;;;19.10;99.90;;;;;;5011927;28;20613;-77
2021/08/02 02:50:09;;;;;;;1.83;1.73;;;19.00;99.90;;;;;;5011567;28;20196;-77
2021/08/02 02:52:36;;;;;;;1.73;1.63;;;19.00;99.90;;;;;;5011672;28;20596;-76
2021/08/02 02:55:06;;;;;;;2.85;1.70;;;19.00;99.90;;;;;;5012639;28;20563;-76
2021/08/02 02:57:33;;;;;;;1.48;1.38;;;19.00;99.90;;;;;;5010037;28;20291;-76
2021/08/02 02:59:59;;;;;;;1.75;1.65;;;19.10;99.90;;;;;;5012926;28;20193;-76
2021/08/02 03:02:29;;;;;;;1.63;1.52;;;19.10;99.90;;;;;;5015309;28;20197;-77
2021/08/02 03:04:58;;;;;;;1.90;1.63;;;19.10;99.90;;;;;;5015441;28;20263;-77
2021/08/02 03:07:29;;;;;;;3.25;1.40;;;19.10;99.90;;;;;;5014352;28;20591;-77
2021/08/02 03:09:56;;;;;;;1.77;1.55;;;19.10;99.90;;;;;;5013747;28;20680;-77
2021/08/02 03:12:23;;;;;;;1.70;1.30;;;19.00;99.90;;;;;;5014348;28;20196;-76
2021/08/02 03:14:50;;;;;;;2.70;1.48;;;19.00;99.90;;;;;;5014318;28;20189;-78
2021/08/02 03:17:16;;;;;;;1.50;1.40;;;19.00;99.90;;;;;;5014224;28;20664;-78
2021/08/02 03:19:44;;;;;;;2.67;1.70;;;19.00;99.90;;;;;;5014413;28;20244;-77
2021/08/02 03:22:20;;;;;;;2.00;1.35;;;19.00;99.90;;;;;;5014330;28;20201;-78
2021/08/02 03:24:50;;;;;;;3.83;1.65;;;19.00;99.90;;;;;;5004453;28;20231;-78
2021/08/02 03:27:26;;;;;;;2.50;1.67;;;19.00;99.90;;;;;;5013813;28;20197;-77
2021/08/02 03:29:55;;;;;;;2.10;1.63;;;19.00;99.90;;;;;;5008938;28;20546;-77
2021/08/02 03:32:24;;;;;;;2.15;1.48;;;19.00;99.90;;;;;;5014119;28;20201;-77
2021/08/02 03:34:56;;;;;;;1.92;1.73;;;19.00;99.90;;;;;;5014692;28;20193;-77
2021/08/02 03:37:25;;;;;;;2.65;1.40;;;18.90;99.90;;;;;;5014797;28;20185;-78
2021/08/02 03:39:54;;;;;;;1.63;1.52;;;19.00;99.90;;;;;;5014890;28;20201;-78
2021/08/02 03:42:22;;;;;;;1.60;1.42;;;18.90;99.90;;;;;;5015223;28;20197;-77
2021/08/02 03:44:49;;;;;;;1.70;1.60;;;18.90;99.90;;;;;;5014833;28;20279;-79
2021/08/02 03:47:16;;;;;;;1.60;1.45;;;18.90;99.90;;;;;;5008782;28;20213;-78
2021/08/02 03:49:43;;;;;;;2.13;1.80;;;19.00;99.90;;;;;;5014821;28;20193;-79
2021/08/02 03:52:12;;;;;;;1.80;1.60;;;18.90;99.90;;;;;;5014411;28;20193;-78
2021/08/02 03:54:38;;;;;;;2.25;2.05;;;19.00;99.90;;;;;;5014804;28;20255;-78
2021/08/02 03:57:06;;;;;;;2.65;1.90;;;19.00;99.90;;;;;;5014504;28;20205;-78
2021/08/02 03:59:33;;;;;;;2.28;1.77;;;18.90;99.90;;;;;;5014331;28;20200;-78
2021/08/02 04:02:00;;;;;;;1.50;1.40;;;18.80;99.90;;;;;;5014443;28;20204;-77
2021/08/02 04:04:27;;;;;;;2.10;1.90;;;18.80;99.90;;;;;;5013352;28;20201;-78
2021/08/02 04:06:54;;;;;;;1.35;1.25;;;18.80;99.90;;;;;;5008092;28;20209;-78
2021/08/02 04:09:22;;;;;;;2.00;1.75;;;18.90;99.90;;;;;;5013321;28;20220;-78
2021/08/02 04:11:50;;;;;;;1.70;1.60;;;18.80;99.90;;;;;;5013041;28;20201;-77
2021/08/02 04:14:17;;;;;;;1.80;1.70;;;18.80;99.90;;;;;;5003377;28;20201;-78
2021/08/02 04:16:44;;;;;;;2.22;1.58;;;18.80;99.90;;;;;;5011499;28;20204;-78
2021/08/02 04:19:10;;;;;;;2.00;1.80;;;18.80;99.90;;;;;;5012584;28;20204;-78
2021/08/02 04:21:37;;;;;;;1.88;1.38;;;18.80;99.90;;;;;;5013713;28;20567;-77
2021/08/02 04:24:05;;;;;;;3.50;1.70;;;18.80;99.90;;;;;;5012946;28;20200;-78
2021/08/02 04:26:36;;;;;;;1.70;1.60;;;18.80;99.90;;;;;;5012925;28;20243;-78
2021/08/02 04:29:03;;;;;;;1.60;1.50;;;18.80;99.90;;;;;;5012645;28;20205;-77
2021/08/02 04:31:32;;;;;;;2.00;1.50;;;18.80;99.90;;;;;;5010993;28;20205;-77
2021/08/02 04:33:59;;;;;;;2.13;1.48;;;18.80;99.90;;;;;;5012707;28;20201;-77
2021/08/02 04:36:26;;;;;;;3.17;1.80;;;18.80;99.90;;;;;;5013488;28;20243;-76
2021/08/02 04:38:53;;;;;;;1.70;1.60;;;18.80;99.90;;;;;;5013358;28;20200;-76
2021/08/02 04:41:20;;;;;;;1.50;1.30;;;18.70;99.90;;;;;;5014089;28;20236;-77
2021/08/02 04:43:48;;;;;;;2.20;1.70;;;18.70;99.90;;;;;;5013119;28;20193;-77
2021/08/02 04:46:14;;;;;;;2.47;1.83;;;18.80;99.90;;;;;;5014053;28;20624;-77
2021/08/02 04:48:41;;;;;;;6.90;1.58;;;18.80;99.90;;;;;;5013474;28;20651;-76
2021/08/02 04:51:08;;;;;;;2.83;1.60;;;18.70;99.90;;;;;;5013538;28;20197;-78
2021/08/02 04:53:34;;;;;;;1.80;1.70;;;18.70;99.90;;;;;;5013361;28;20232;-76
2021/08/02 04:56:01;;;;;;;2.70;1.73;;;18.70;99.90;;;;;;5013488;28;20195;-77
2021/08/02 04:58:28;;;;;;;2.50;1.58;;;18.70;99.90;;;;;;5013101;28;20722;-76
2021/08/02 05:00:56;;;;;;;1.98;1.65;;;18.70;99.90;;;;;;5013919;28;20254;-77
2021/08/02 05:03:22;;;;;;;2.13;2.00;;;18.60;99.90;;;;;;5012743;28;20208;-76
2021/08/02 05:05:49;;;;;;;1.63;1.52;;;18.60;99.90;;;;;;5012915;28;20592;-76
2021/08/02 05:08:16;;;;;;;2.10;1.38;;;18.60;99.90;;;;;;5003823;28;20200;-76
2021/08/02 05:10:43;;;;;;;1.90;1.60;;;18.60;99.90;;;;;;5008372;28;20204;-76
2021/08/02 05:13:09;;;;;;;2.00;1.42;;;18.60;99.90;;;;;;5013194;28;20201;-77
2021/08/02 05:15:36;;;;;;;2.78;1.70;;;18.50;99.90;;;;;;5013810;28;20197;-77
2021/08/02 05:18:04;;;;;;;1.38;1.27;;;18.50;99.90;;;;;;5011516;28;20654;-76
2021/08/02 05:20:31;;;;;;;3.15;1.33;;;18.50;99.90;;;;;;5005077;28;20545;-77
2021/08/02 05:22:57;;;;;;;2.53;1.40;;;18.50;99.90;;;;;;5013133;28;20280;-76
2021/08/02 05:25:24;;;;;;;3.10;1.50;;;18.50;99.90;;;;;;5007838;28;20275;-76
2021/08/02 05:27:52;;;;;;;2.80;1.80;;;18.50;99.90;;;;;;5011375;28;20651;-76
2021/08/02 05:30:19;;;;;;;2.35;1.70;;;18.50;99.90;;;;;;5012745;28;20193;-76
2021/08/02 05:32:46;;;;;;;1.60;1.27;;;18.50;99.90;;;;;;5012522;28;20262;-76
2021/08/02 05:35:15;;;;;;;2.55;1.85;;;18.50;99.90;;;;;;5013042;28;20189;-76
2021/08/02 05:37:42;;;;;;;2.35;1.75;;;18.50;99.90;;;;;;5011723;28;20200;-76
2021/08/02 05:40:10;;;;;;;2.17;1.80;;;18.50;99.90;;;;;;5012887;28;20584;-77
2021/08/02 05:42:37;;;;;;;2.78;1.58;;;18.50;99.90;;;;;;5012781;28;20208;-77
2021/08/02 05:45:05;;;;;;;1.63;1.48;;;18.50;99.90;;;;;;5012995;28;20197;-78
2021/08/02 05:47:31;;;;;;;2.22;1.45;;;18.50;99.90;;;;;;5010809;28;20943;-77
2021/08/02 05:49:58;;;;;;;2.25;1.45;;;18.40;99.90;;;;;;5013049;28;20548;-77
2021/08/02 05:52:26;;;;;;;1.73;1.63;;;18.50;99.90;;;;;;5012244;28;20204;-77
2021/08/02 05:54:53;;;;;;;2.13;1.70;;;18.40;99.90;;;;;;5012620;28;20189;-76
2021/08/02 05:57:21;;;;;;;4.63;1.77;;;18.40;99.90;;;;;;5012665;28;20197;-77
2021/08/02 05:59:48;;;;;;;2.28;1.75;;;18.40;99.90;;;;;;5012795;28;20284;-77
2021/08/02 06:02:15;;;;;;;2.08;1.65;;;18.40;99.90;;;;;;5012181;28;20239;-77
2021/08/02 06:04:42;;;;;;;1.50;1.40;;;18.40;99.90;;;;;;5011782;28;20193;-77
2021/08/02 06:07:09;;;;;;;2.97;1.80;;;18.40;99.90;;;;;;5011263;28;20229;-77
2021/08/02 06:09:37;;;;;;;2.25;1.45;;;18.40;99.90;;;;;;5011718;28;20235;-77
2021/08/02 06:12:05;;;;;;;1.83;1.30;;;18.40;99.90;;;;;;5011515;28;20244;-77
2021/08/02 06:14:31;;;;;;;2.60;1.73;;;18.40;99.90;;;;;;5011406;28;20199;-77
2021/08/02 06:16:58;;;;;;;1.70;1.23;;;18.40;99.90;;;;;;5011460;28;20192;-77
2021/08/02 06:19:24;;;;;;;1.70;1.55;;;18.40;99.90;;;;;;5011713;28;20567;-76
2021/08/02 06:21:51;;;;;;;1.35;1.20;;;18.40;99.90;;;;;;5011892;28;20219;-76
2021/08/02 06:24:18;;;;;;;1.83;1.65;;;18.40;99.90;;;;;;5009764;28;20547;-77
2021/08/02 06:26:46;;;;;;;2.10;1.70;;;18.40;99.90;;;;;;5009399;28;20843;-77
2021/08/02 06:29:12;;;;;;;2.30;1.60;;;18.40;99.90;;;;;;5011970;28;20208;-77
2021/08/02 06:31:39;;;;;;;2.55;1.50;;;18.40;99.90;;;;;;5009062;28;20208;-77
2021/08/02 06:34:06;;;;;;;2.78;1.55;;;18.40;99.90;;;;;;5011710;28;20525;-77
2021/08/02 06:36:33;;;;;;;2.00;1.73;;;18.40;99.90;;;;;;5015933;28;20193;-77
2021/08/02 06:38:59;;;;;;;2.38;1.48;;;18.40;99.90;;;;;;5015624;28;20209;-77
2021/08/02 06:41:26;;;;;;;1.50;1.20;;;18.40;99.90;;;;;;5015900;28;20205;-77
2021/08/02 06:43:54;;;;;;;2.00;1.40;;;18.40;99.90;;;;;;5015236;28;20196;-76
2021/08/02 06:46:20;;;;;;;1.90;1.45;;;18.40;99.90;;;;;;5015651;28;20717;-77
2021/08/02 06:48:47;;;;;;;3.88;1.33;;;18.40;99.90;;;;;;5012637;28;20196;-78
2021/08/02 06:51:14;;;;;;;1.50;1.40;;;18.40;99.90;;;;;;5015765;28;20260;-77
2021/08/02 06:53:41;;;;;;;2.40;1.60;;;18.40;99.90;;;;;;5014766;28;20232;-76
2021/08/02 06:56:07;;;;;;;2.03;1.40;;;18.40;99.90;;;;;;5015584;28;20220;-76
2021/08/02 06:58:34;;;;;;;1.85;1.30;;;18.40;99.90;;;;;;5015810;28;20196;-76
2021/08/02 07:01:02;;;;;;;1.80;1.70;;;18.40;99.90;;;;;;5015804;28;20532;-77
2021/08/02 07:03:29;;;;;;;3.58;2.30;;;18.50;99.90;;;;;;5014725;28;20193;-76
2021/08/02 07:05:55;;;;;;;3.58;1.75;;;18.50;99.90;;;;;;5015042;28;20213;-76
2021/08/02 07:08:22;;;;;;;2.00;1.80;;;18.60;99.90;;;;;;5015897;28;20204;-77
2021/08/02 07:10:49;;;;;;;2.63;1.73;;;18.60;99.90;;;;;;5015202;28;20259;-77
2021/08/02 07:13:15;;;;;;;1.60;1.50;;;18.60;99.90;;;;;;5015514;28;20201;-76
2021/08/02 07:15:42;;;;;;;2.55;1.85;;;18.70;99.90;;;;;;5015416;28;20189;-78
2021/08/02 07:18:10;;;;;;;5.85;1.90;;;18.70;99.90;;;;;;5013931;28;20703;-77
2021/08/02 07:20:37;;;;;;;4.28;1.95;;;18.80;99.90;;;;;;5007628;28;20620;-77
2021/08/02 07:23:04;;;;;;;2.70;1.77;;;18.70;99.90;;;;;;5015562;28;20196;-78
2021/08/02 07:25:30;;;;;;;2.13;1.55;;;18.70;99.90;;;;;;5013745;28;20278;-78
2021/08/02 07:27:57;;;;;;;1.63;1.40;;;18.70;99.90;;;;;;5015967;28;20603;-79
2021/08/02 07:30:24;;;;;;;2.10;1.70;;;18.70;99.90;;;;;;5014960;28;20561;-79
2021/08/02 07:32:51;;;;;;;1.70;1.58;;;18.70;99.90;;;;;;5015693;28;20549;-78
2021/08/02 07:35:18;;;;;;;1.65;1.25;;;18.70;99.90;;;;;;5012474;28;20201;-79
2021/08/02 07:37:45;;;;;;;1.55;1.45;;;18.70;99.90;;;;;;5012882;28;20270;-77
2021/08/02 07:40:12;;;;;;;1.77;1.27;;;18.70;99.90;;;;;;5018307;28;20509;-78
2021/08/02 07:42:39;;;;;;;2.60;1.67;;;18.70;99.90;;;;;;5014313;28;20197;-79
2021/08/02 07:45:06;;;;;;;2.03;1.55;;;18.70;99.90;;;;;;5014501;28;20201;-79
2021/08/02 07:47:33;;;;;;;2.72;1.60;;;18.70;99.90;;;;;;5013451;28;20217;-78
2021/08/02 07:50:00;;;;;;;3.53;1.40;;;18.80;99.90;;;;;;5014732;28;20212;-79
2021/08/02 07:52:30;;;;;;;1.23;1.13;;;18.80;99.90;;;;;;5014896;28;20247;-78
2021/08/02 07:54:57;;;;;;;1.65;1.35;;;18.80;99.90;;;;;;5013868;28;20255;-79
2021/08/02 07:57:23;;;;;;;1.48;1.30;;;18.80;99.90;;;;;;5014768;28;20201;-79
2021/08/02 07:59:50;;;;;;;1.60;1.20;;;18.90;99.90;;;;;;5014760;28;20196;-79
2021/08/02 08:02:16;;;;;;;1.20;1.10;;;19.00;99.90;;;;;;5014962;28;20196;-77
2021/08/02 08:04:43;;;;;;;1.33;1.00;;;19.20;99.90;;;;;;5014651;28;20212;-78
2021/08/02 08:07:10;;;;;;;1.83;1.42;;;19.30;99.90;;;;;;5014516;28;20673;-79
2021/08/02 08:09:38;;;;;;;1.70;1.33;;;19.40;99.90;;;;;;5014543;28;20208;-78
2021/08/02 08:12:05;;;;;;;1.45;1.13;;;19.40;99.90;;;;;;5014579;28;20676;-76
2021/08/02 08:14:32;;;;;;;2.80;1.25;;;19.50;99.90;;;;;;5014962;28;20197;-78
2021/08/02 08:16:58;;;;;;;2.08;1.60;;;19.60;99.90;;;;;;5013558;28;20189;-80
2021/08/02 08:19:25;;;;;;;1.65;1.23;;;19.70;99.90;;;;;;5014378;28;20204;-79
2021/08/02 08:21:52;;;;;;;1.60;1.15;;;19.80;99.90;;;;;;5012966;28;20222;-79
2021/08/02 08:24:18;;;;;;;3.05;1.55;;;19.80;99.90;;;;;;5013796;28;20632;-78
2021/08/02 08:26:46;;;;;;;1.20;1.00;;;19.80;99.90;;;;;;5014278;28;20216;-79
2021/08/02 08:29:13;;;;;;;2.47;1.40;;;19.80;99.90;;;;;;5012878;28;20580;-78
2021/08/02 08:31:40;;;;;;;1.50;1.40;;;19.80;99.90;;;;;;5013581;28;20568;-77
2021/08/02 08:34:06;;;;;;;1.90;1.27;;;19.80;99.90;;;;;;5014357;28;20572;-84
2021/08/02 08:36:33;;;;;;;5.60;1.30;;;19.80;99.90;;;;;;5014800;28;20195;-77
2021/08/02 08:39:00;;;;;;;1.73;1.20;;;19.80;99.90;;;;;;5014387;28;20201;-78
2021/08/02 08:41:27;;;;;;;2.38;1.40;;;19.80;99.90;;;;;;5014573;28;20219;-78
2021/08/02 08:43:56;;;;;;;1.40;1.30;;;19.70;99.90;;;;;;5013751;28;20193;-81
2021/08/02 08:46:24;;;;;;;1.55;1.23;;;19.70;99.90;;;;;;5008570;28;20248;-82
2021/08/02 08:48:52;;;;;;;2.55;1.38;;;19.80;99.90;;;;;;5003977;28;20189;-77
2021/08/02 08:51:20;;;;;;;1.73;1.00;;;19.70;99.90;;;;;;5013826;28;20197;-78
2021/08/02 08:53:47;;;;;;;2.92;1.00;;;19.70;99.90;;;;;;5012991;28;20560;-79
2021/08/02 08:56:16;;;;;;;1.75;0.98;;;19.80;99.90;;;;;;5013096;28;20702;-79
2021/08/02 08:58:44;;;;;;;1.40;1.10;;;19.70;99.90;;;;;;5016857;28;20204;-79
2021/08/02 09:01:13;;;;;;;1.35;1.15;;;19.80;99.90;;;;;;5021364;28;20584;-79
2021/08/02 09:03:51;;;;;;;1.10;0.88;;;19.70;99.90;;;;;;5013335;28;20193;-82
2021/08/02 09:06:18;;;;;;;1.20;1.05;;;19.70;99.90;;;;;;5011085;28;20828;-82
2021/08/02 09:08:45;;;;;;;3.15;1.23;;;19.70;99.90;;;;;;5009352;28;20204;-82
2021/08/02 09:11:18;;;;;;;2.17;1.02;;;19.80;99.90;;;;;;5011812;28;20203;-83
2021/08/02 09:13:45;;;;;;;1.20;1.00;;;19.80;99.90;;;;;;5006366;28;20228;-81
2021/08/02 09:16:15;;;;;;;1.20;1.10;;;19.80;99.90;;;;;;5011344;28;20204;-79
2021/08/02 09:18:46;;;;;;;1.20;1.00;;;19.80;99.90;;;;;;5009705;28;20270;-78
2021/08/02 09:21:13;;;;;;;1.92;0.90;;;19.70;99.90;;;;;;5005460;28;20270;-78
2021/08/02 09:23:47;;;;;;;1.38;1.00;;;19.80;99.90;;;;;;5013340;28;20196;-77
2021/08/02 09:26:14;;;;;;;1.40;0.90;;;19.80;99.90;;;;;;5010729;28;20196;-76
2021/08/02 09:28:52;;;;;;;1.13;0.95;;;19.80;99.90;;;;;;5013436;28;20200;-77
2021/08/02 09:31:20;;;;;;;1.58;1.10;;;19.90;99.90;;;;;;5013174;28;20247;-77
2021/08/02 09:33:48;;;;;;;1.70;0.95;;;19.90;99.90;;;;;;5013174;28;20235;-77
2021/08/02 09:36:16;;;;;;;1.15;1.00;;;20.00;99.90;;;;;;5012315;28;20193;-77
2021/08/02 09:38:43;;;;;;;1.42;0.95;;;20.10;99.90;;;;;;5011823;28;20205;-77
2021/08/02 09:41:19;;;;;;;1.17;0.90;;;20.30;99.90;;;;;;5010946;28;20200;-77
2021/08/02 09:43:51;;;;;;;1.35;1.02;;;20.40;99.90;;;;;;5010651;28;20180;-77
2021/08/02 09:46:18;;;;;;;2.42;1.10;;;20.50;99.90;;;;;;5010873;28;20280;-77
2021/08/02 09:48:47;;;;;;;2.03;1.20;;;20.60;99.90;;;;;;5011929;28;20204;-77
2021/08/02 09:51:16;;;;;;;1.42;1.00;;;20.70;99.90;;;;;;5011900;28;20201;-77
2021/08/02 09:53:45;;;;;;;1.58;0.93;;;20.80;99.90;;;;;;5010872;28;20931;-77
2021/08/02 09:56:13;;;;;;;2.08;1.00;;;20.90;99.90;;;;;;5008880;28;20197;-77
2021/08/02 09:58:41;;;;;;;1.40;1.08;;;20.90;99.90;;;;;;5010902;28;20204;-81
2021/08/02 10:01:09;;;;;;;1.50;1.20;;;20.90;99.90;;;;;;5012262;28;20940;-82
2021/08/02 10:03:37;;;;;;;1.88;1.00;;;20.80;99.90;;;;;;5011835;28;20197;-82
2021/08/02 10:06:05;;;;;;;1.38;0.95;;;20.70;99.90;;;;;;5011717;28;20541;-85
2021/08/02 10:08:33;;;;;;;1.35;0.90;;;20.70;99.90;;;;;;5013020;28;20566;-81
2021/08/02 10:10:59;;;;;;;1.70;1.00;;;20.60;99.90;;;;;;5016704;28;20564;-83
2021/08/02 10:13:29;;;;;;;2.95;1.10;;;20.60;99.90;;;;;;5016536;28;20200;-79
2021/08/02 10:15:59;;;;;;;1.33;0.80;;;20.60;99.90;;;;;;5016891;28;20201;-80
2021/08/02 10:18:28;;;;;;;2.10;1.00;;;20.60;99.90;;;;;;5016618;28;20220;-80
2021/08/02 10:21:05;;;;;;;1.30;0.93;;;20.70;99.90;;;;;;5016533;28;20212;-81
2021/08/02 10:23:32;;;;;;;1.00;0.88;;;20.70;99.90;;;;;;5016688;28;20627;-78
2021/08/02 10:25:58;;;;;;;1.05;0.70;;;20.70;99.90;;;;;;5013392;28;20212;-77
2021/08/02 10:28:25;;;;;;;2.10;0.90;;;20.80;99.90;;;;;;5013861;28;20224;-79
2021/08/02 10:31:02;;;;;;;2.25;1.05;;;20.90;99.90;;;;;;5010080;28;20209;-84
2021/08/02 10:33:33;;;;;;;1.33;0.90;;;20.90;99.90;;;;;;5015541;28;20247;-76
2021/08/02 10:36:12;;;;;;;1.50;1.00;;;20.90;99.90;;;;;;5016491;28;20200;-78
2021/08/02 10:38:44;;;;;;;1.30;0.93;;;20.90;99.90;;;;;;5020335;28;20287;-77
2021/08/02 10:41:11;;;;;;;1.70;1.00;;;20.90;99.90;;;;;;5015239;28;20633;-75
2021/08/02 10:43:41;;;;;;;1.60;1.10;;;20.90;99.90;;;;;;5015185;28;20200;-79
2021/08/02 10:46:19;;;;;;;1.33;0.90;;;20.90;99.90;;;;;;5015090;28;20603;-84
2021/08/02 10:48:46;;;;;;;1.00;0.90;;;20.90;99.90;;;;;;5014323;28;20516;-76
2021/08/02 10:51:16;;;;;;;1.77;1.00;;;20.80;99.90;;;;;;5011928;28;20200;-76
2021/08/02 10:53:44;;;;;;;1.10;0.85;;;20.70;99.90;;;;;;5014935;28;20228;-75
2021/08/02 10:56:11;;;;;;;1.20;1.00;;;20.80;99.90;;;;;;5014382;28;20197;-74
2021/08/02 10:58:39;;;;;;;2.17;0.85;;;20.80;99.90;;;;;;5014378;28;20205;-78
2021/08/02 11:01:11;;;;;;;1.98;1.05;;;20.90;99.90;;;;;;5015430;28;20528;-75
2021/08/02 11:03:40;;;;;;;1.73;1.05;;;20.90;99.90;;;;;;5014728;28;20204;-80
2021/08/02 11:06:08;;;;;;;2.35;1.10;;;20.90;99.90;;;;;;5012505;28;20636;-79
2021/08/02 11:08:44;;;;;;;3.72;1.20;;;21.00;99.90;;;;;;5015996;28;20205;-77
2021/08/02 11:11:11;;;;;;;1.58;1.00;;;21.00;99.90;;;;;;5015940;28;20189;-76
2021/08/02 11:13:38;;;;;;;1.23;1.13;;;21.10;99.90;;;;;;5015418;28;20283;-76
2021/08/02 11:16:10;;;;;;;1.20;1.10;;;21.10;99.90;;;;;;5016287;28;20197;-80
2021/08/02 11:18:37;;;;;;;1.17;1.02;;;21.10;99.90;;;;;;5015760;28;20641;-76
2021/08/02 11:21:04;;;;;;;2.72;1.40;;;21.10;99.90;;;;;;5011096;28;20287;-77
2021/08/02 11:23:32;;;;;;;1.45;1.10;;;21.20;99.90;;;;;;5017140;28;20197;-81
2021/08/02 11:26:11;;;;;;;1.23;1.10;;;21.20;99.90;;;;;;5014796;28;20200;-76
2021/08/02 11:28:39;;;;;;;2.35;1.40;;;21.30;99.90;;;;;;5015193;28;20235;-77
2021/08/02 11:31:06;;;;;;;1.23;0.95;;;21.30;99.90;;;;;;5016163;28;20201;-77
2021/08/02 11:33:33;;;;;;;2.20;1.00;;;21.30;99.90;;;;;;5015717;28;20200;-79
2021/08/02 11:36:00;;;;;;;1.20;1.10;;;21.30;99.90;;;;;;5015150;28;20568;-80
2021/08/02 11:38:37;;;;;;;2.00;1.23;;;21.30;99.90;;;;;;5015632;28;20304;-81
2021/08/02 11:41:04;;;;;;;2.38;1.30;;;21.20;99.90;;;;;;5014783;28;20266;-81
2021/08/02 11:43:41;;;;;;;2.05;1.45;;;21.20;99.90;;;;;;5015327;28;20208;-79
2021/08/02 11:46:08;;;;;;;1.80;1.15;;;21.30;99.90;;;;;;5015226;28;20196;-85
2021/08/02 11:48:35;;;;;;;1.40;1.10;;;21.20;99.90;;;;;;5014742;28;20209;-78
2021/08/02 11:51:02;;;;;;;2.80;1.48;;;21.30;99.90;;;;;;5014041;28;20603;-81
2021/08/02 11:53:36;;;;;;;1.95;1.30;;;21.40;99.90;;;;;;5015236;28;20310;-75
2021/08/02 11:56:03;;;;;;;1.85;1.20;;;21.30;99.90;;;;;;5012649;28;20205;-76
2021/08/02 11:58:45;;;;;;;1.52;1.02;;;21.40;99.90;;;;;;5013510;28;20201;-80
2021/08/02 12:01:13;;;;;;;1.58;1.05;;;21.30;99.90;;;;;;5017707;28;20197;-77
2021/08/02 12:03:44;;;;;;;1.95;1.38;;;21.30;99.90;;;;;;5013549;28;20255;-75
2021/08/02 12:06:12;;;;;;;2.38;1.00;;;21.40;99.90;;;;;;5014211;28;20220;-81
2021/08/02 12:08:49;;;;;;;1.75;1.00;;;21.30;99.90;;;;;;5013795;28;20232;-85
2021/08/02 12:11:17;;;;;;;2.95;1.40;;;21.30;99.90;;;;;;5012577;28;20698;-80
2021/08/02 12:13:47;;;;;;;1.40;1.30;;;21.40;99.90;;;;;;5004222;28;20201;-82
2021/08/02 12:16:26;;;;;;;1.58;1.48;;;21.40;99.90;;;;;;5014106;28;20193;-81
2021/08/02 12:19:03;;;;;;;1.52;1.40;;;21.40;99.90;;;;;;5008574;28;20612;-77
2021/08/02 12:21:31;;;;;;;1.30;1.10;;;21.40;99.90;;;;;;5013815;28;20192;-77
2021/08/02 12:24:07;;;;;;;1.08;0.93;;;21.40;99.90;;;;;;5013739;28;20204;-76
2021/08/02 12:26:36;;;;;;;2.38;1.13;;;21.50;99.90;;;;;;5013549;28;20192;-80
2021/08/02 12:29:04;;;;;;;4.40;1.95;;;21.50;99.90;;;;;;5013533;28;20340;-75
2021/08/02 12:31:31;;;;;;;5.05;1.50;;;21.50;99.90;;;;;;5009264;28;20189;-78
2021/08/02 12:33:57;;;;;;;1.75;1.10;;;21.50;99.90;;;;;;5014267;28;20197;-80
2021/08/02 12:36:24;;;;;;;3.05;1.45;;;21.50;99.90;;;;;;5014502;28;20197;-80
2021/08/02 12:38:53;;;;;;;3.15;1.52;;;21.50;99.90;;;;;;5016131;28;20195;-76
2021/08/02 12:41:21;;;;;;;1.60;1.33;;;21.50;99.90;;;;;;5013939;28;20188;-76
2021/08/02 12:43:52;;;;;;;2.75;1.30;;;21.60;99.90;;;;;;5014318;28;20197;-76
2021/08/02 12:46:21;;;;;;;3.03;1.20;;;21.50;99.90;;;;;;5012264;28;20252;-78
2021/08/02 12:48:47;;;;;;;1.30;1.10;;;21.50;99.90;;;;;;5014590;28;20229;-79
2021/08/02 12:51:14;;;;;;;3.38;1.20;;;21.60;99.90;;;;;;5014070;28;20518;-76
2021/08/02 12:53:41;;;;;;;1.40;1.00;;;21.60;99.90;;;;;;5013959;28;20283;-77
2021/08/02 12:56:08;;;;;;;1.25;1.08;;;21.60;99.90;;;;;;5013721;28;20197;-82